UUBP

Bryansk Airport

Bryansk, Russian Federation
TAF UUBP 221051Z 2212/2221 17007G12MPS 9999 SCT030 BECMG 2217/2219 3100 -SHRA BR BKN009 BKN010CB
Issued Valid From Valid To
Sep-22 @ 10:51 UTC
(4 hours ago)
Sep-22 @ 12:00 UTC
(3 hours ago)
Sep-22 @ 21:00 UTC
(in 6 hours)
to
to
TAF UUBP 221051Z 2212/2221 17007G12MPS 9999 SCT030 BECMG 2217/2219 3100 -SHRA BR BKN009 BKN010CB
Issued Sep-22 @ 10:51 UTC
(4 hours ago)
Valid From Sep-22 @ 12:00 UTC
(3 hours ago)
Valid To Sep-22 @ 21:00 UTC
(in 6 hours)
-
-